createdAt,value
2023-03-02T00:01:41.000Z,16.95
2023-03-02T00:04:13.976Z,16.75
2023-03-02T00:06:41.580Z,17.67
2023-03-02T00:09:09.515Z,18.35
2023-03-02T00:11:39.219Z,19.15
2023-03-02T00:14:06.958Z,19.00
2023-03-02T00:16:34.947Z,19.23
2023-03-02T00:19:02.687Z,19.40
2023-03-02T00:21:31.746Z,17.55
2023-03-02T00:23:59.251Z,19.02
2023-03-02T00:26:26.969Z,18.67
2023-03-02T00:28:55.803Z,18.92
2023-03-02T00:31:23.493Z,18.08
2023-03-02T00:33:51.150Z,18.38
2023-03-02T00:36:20.607Z,18.63
2023-03-02T00:38:48.355Z,18.77
2023-03-02T00:41:17.321Z,18.95
2023-03-02T00:43:45.088Z,18.00
2023-03-02T00:46:15.752Z,18.33
2023-03-02T00:48:43.627Z,18.02
2023-03-02T00:51:11.703Z,17.13
2023-03-02T00:53:39.890Z,17.33
2023-03-02T00:56:08.604Z,17.30
2023-03-02T00:58:36.149Z,18.58
2023-03-02T01:01:07.831Z,17.33
2023-03-02T01:03:37.088Z,16.80
2023-03-02T01:06:06.415Z,19.20
2023-03-02T01:08:33.974Z,19.10
2023-03-02T01:11:02.199Z,17.70
2023-03-02T01:13:29.994Z,18.30
2023-03-02T01:16:04.348Z,18.77
2023-03-02T01:18:32.955Z,18.48
2023-03-02T01:21:06.285Z,17.17
2023-03-02T01:23:34.102Z,18.63
2023-03-02T01:26:01.716Z,18.38
2023-03-02T01:28:29.247Z,19.10
2023-03-02T01:30:56.730Z,16.25
2023-03-02T01:33:24.301Z,18.48
2023-03-02T01:35:51.920Z,19.92
2023-03-02T01:38:20.890Z,17.67
2023-03-02T01:40:48.447Z,18.58
2023-03-02T01:43:17.388Z,17.92
2023-03-02T01:45:49.036Z,18.92
2023-03-02T01:48:19.435Z,18.45
2023-03-02T01:50:47.114Z,17.88
2023-03-02T01:53:16.849Z,18.23
2023-03-02T01:55:46.810Z,18.65
2023-03-02T01:58:16.676Z,17.98
2023-03-02T02:00:45.396Z,18.17
2023-03-02T02:03:20.813Z,16.55
2023-03-02T02:05:59.996Z,17.40
2023-03-02T02:08:27.935Z,18.20
2023-03-02T02:10:57.629Z,17.90
2023-03-02T02:13:25.156Z,17.20
2023-03-02T02:15:52.839Z,17.08
2023-03-02T02:18:20.364Z,17.08
2023-03-02T02:20:49.926Z,18.30
2023-03-02T02:23:27.437Z,17.80
2023-03-02T02:26:12.304Z,16.48
2023-03-02T02:28:44.584Z,17.67
2023-03-02T02:31:17.125Z,18.90
2023-03-02T02:33:47.550Z,17.13
2023-03-02T02:36:19.499Z,17.50
2023-03-02T02:38:49.376Z,13.35
2023-03-02T02:41:23.548Z,15.48
2023-03-02T02:43:51.546Z,16.58
2023-03-02T02:46:19.302Z,16.27
2023-03-02T02:48:46.864Z,17.80
2023-03-02T02:51:19.578Z,17.50
2023-03-02T02:53:50.955Z,16.25
2023-03-02T02:56:20.329Z,16.58
2023-03-02T02:58:50.725Z,17.52
2023-03-02T03:01:25.363Z,17.08
2023-03-02T03:03:54.971Z,17.95
2023-03-02T03:06:26.688Z,15.73
2023-03-02T03:09:01.891Z,16.42
2023-03-02T03:11:32.601Z,16.75
2023-03-02T03:14:05.716Z,18.17
2023-03-02T03:16:34.795Z,16.75
2023-03-02T03:19:07.865Z,15.65
2023-03-02T03:21:35.818Z,17.02
2023-03-02T03:24:03.446Z,16.85
2023-03-02T03:26:32.760Z,15.32
2023-03-02T03:29:00.672Z,16.95
2023-03-02T03:31:29.467Z,16.65
2023-03-02T03:34:00.467Z,18.67
2023-03-02T03:36:29.079Z,16.20
2023-03-02T03:38:57.139Z,17.85
2023-03-02T03:41:24.826Z,17.83
2023-03-02T03:43:54.069Z,17.40
2023-03-02T03:46:21.672Z,17.98
2023-03-02T03:48:49.266Z,17.83
2023-03-02T03:51:17.621Z,17.13
2023-03-02T03:53:45.137Z,18.73
2023-03-02T03:56:13.242Z,17.73
2023-03-02T03:58:40.959Z,17.58
2023-03-02T04:01:09.915Z,17.77
2023-03-02T04:03:37.399Z,18.80
2023-03-02T04:06:06.385Z,17.30
2023-03-02T04:08:33.958Z,16.58
2023-03-02T04:11:01.468Z,16.23
2023-03-02T04:13:29.073Z,17.73
2023-03-02T04:15:56.586Z,17.30
2023-03-02T04:18:25.418Z,15.98
2023-03-02T04:20:52.936Z,17.83
2023-03-02T04:23:20.448Z,17.25
2023-03-02T04:25:47.937Z,16.52
2023-03-02T04:28:17.608Z,18.73
2023-03-02T04:30:45.369Z,16.27
2023-03-02T04:33:12.897Z,17.33
2023-03-02T04:35:41.848Z,17.20
2023-03-02T04:38:09.362Z,16.17
2023-03-02T04:40:36.916Z,15.70
2023-03-02T04:43:04.470Z,18.38
2023-03-02T04:45:32.069Z,16.98
2023-03-02T04:47:59.642Z,17.42
2023-03-02T04:50:27.322Z,16.48
2023-03-02T04:52:56.825Z,16.95
2023-03-02T04:55:27.225Z,16.02
2023-03-02T04:57:54.759Z,15.95
2023-03-02T05:00:23.189Z,15.63
2023-03-02T05:02:51.002Z,16.35
2023-03-02T05:05:20.945Z,16.70
2023-03-02T05:07:48.740Z,16.85
2023-03-02T05:10:19.270Z,16.10
2023-03-02T05:12:57.958Z,16.55
2023-03-02T05:15:28.001Z,15.18
2023-03-02T05:17:56.160Z,15.40
2023-03-02T05:20:27.522Z,16.08
2023-03-02T05:22:56.533Z,14.90
2023-03-02T05:25:26.303Z,15.10
2023-03-02T05:27:54.089Z,15.45
2023-03-02T05:30:23.119Z,14.63
2023-03-02T05:32:51.186Z,14.73
2023-03-02T05:35:19.289Z,16.23
2023-03-02T05:37:47.053Z,16.35
2023-03-02T05:40:17.113Z,16.33
2023-03-02T05:42:46.116Z,16.13
2023-03-02T05:45:19.626Z,16.15
2023-03-02T05:47:47.910Z,14.93
2023-03-02T05:50:15.585Z,15.20
2023-03-02T05:52:45.371Z,14.95
2023-03-02T05:55:13.918Z,15.35
2023-03-02T05:57:42.103Z,15.00
2023-03-02T06:00:13.903Z,14.75
2023-03-02T06:02:42.135Z,15.90
2023-03-02T06:05:12.504Z,14.80
2023-03-02T06:07:40.031Z,17.17
2023-03-02T06:10:09.119Z,15.23
2023-03-02T06:12:36.667Z,15.48
2023-03-02T06:15:05.264Z,16.15
2023-03-02T06:17:34.451Z,15.15
2023-03-02T06:20:02.051Z,14.10
2023-03-02T06:22:29.545Z,14.27
2023-03-02T06:24:57.002Z,14.82
2023-03-02T06:27:24.490Z,14.32
2023-03-02T06:29:52.307Z,15.27
2023-03-02T06:32:19.937Z,14.50
2023-03-02T06:34:49.990Z,15.18
2023-03-02T06:37:17.576Z,15.95
2023-03-02T06:39:45.120Z,14.57
2023-03-02T06:42:12.662Z,14.95
2023-03-02T06:44:40.421Z,15.25
2023-03-02T06:47:07.964Z,15.55
2023-03-02T06:49:35.787Z,15.90
2023-03-02T06:52:07.091Z,14.65
2023-03-02T06:54:34.725Z,16.00
2023-03-02T06:57:02.256Z,15.20
2023-03-02T06:59:29.873Z,15.48
2023-03-02T07:01:57.372Z,15.02
2023-03-02T07:04:25.086Z,15.85
2023-03-02T07:06:52.773Z,16.55
2023-03-02T07:09:22.097Z,16.00
2023-03-02T07:11:50.260Z,16.35
2023-03-02T07:14:17.828Z,15.65
2023-03-02T07:16:45.428Z,14.88
2023-03-02T07:19:14.051Z,15.98
2023-03-02T07:21:41.998Z,14.38
2023-03-02T07:24:09.728Z,14.27
2023-03-02T07:26:38.703Z,14.23
2023-03-02T07:29:06.199Z,14.52
2023-03-02T07:31:34.003Z,15.43
2023-03-02T07:34:01.803Z,15.73
2023-03-02T07:36:29.403Z,14.98
2023-03-02T07:38:57.524Z,14.27
2023-03-02T07:41:25.125Z,14.80
2023-03-02T07:43:54.028Z,14.70
2023-03-02T07:46:21.599Z,14.98
2023-03-02T07:48:49.225Z,14.23
2023-03-02T07:51:16.807Z,14.80
2023-03-02T07:53:44.317Z,14.15
2023-03-02T07:56:12.977Z,15.43
2023-03-02T07:58:40.490Z,14.93
2023-03-02T08:01:09.926Z,14.82
2023-03-02T08:03:37.974Z,14.13
2023-03-02T08:06:07.187Z,14.13
2023-03-02T08:08:34.738Z,14.45
2023-03-02T08:11:06.066Z,14.32
2023-03-02T08:13:33.620Z,14.00
2023-03-02T08:16:02.434Z,13.75
2023-03-02T08:18:32.105Z,14.90
2023-03-02T08:21:00.175Z,13.82
2023-03-02T08:23:27.965Z,15.95
2023-03-02T08:25:56.289Z,14.02
2023-03-02T08:28:24.378Z,13.82
2023-03-02T08:30:58.700Z,13.88
2023-03-02T08:33:27.539Z,14.77
2023-03-02T08:35:57.776Z,13.45
2023-03-02T08:38:25.475Z,13.93
2023-03-02T08:40:53.861Z,14.32
2023-03-02T08:43:23.298Z,14.88
2023-03-02T08:45:53.452Z,14.95
2023-03-02T08:48:21.139Z,14.45
2023-03-02T08:50:57.730Z,13.77
2023-03-02T08:53:25.855Z,14.82
2023-03-02T08:55:53.582Z,13.45
2023-03-02T08:58:21.190Z,13.55
2023-03-02T09:00:49.212Z,13.43
2023-03-02T09:03:16.841Z,11.50
2023-03-02T09:05:45.067Z,11.95
2023-03-02T09:08:14.261Z,11.82
2023-03-02T09:10:41.826Z,10.45
2023-03-02T09:13:09.403Z,11.35
2023-03-02T09:15:37.982Z,10.82
2023-03-02T09:18:05.682Z,11.57
2023-03-02T09:20:33.991Z,11.07
2023-03-02T09:23:01.552Z,10.07
2023-03-02T09:25:30.656Z,9.63
2023-03-02T09:27:58.176Z,9.75
2023-03-02T09:30:25.770Z,10.25
2023-03-02T09:32:53.358Z,10.13
2023-03-02T09:35:20.987Z,10.15
2023-03-02T09:37:48.520Z,11.55
2023-03-02T09:40:20.539Z,11.48
2023-03-02T09:43:17.754Z,9.90
2023-03-02T09:45:57.735Z,9.88
2023-03-02T09:48:41.536Z,10.05
2023-03-02T09:51:21.869Z,9.45
2023-03-02T09:53:59.268Z,9.73
2023-03-02T09:56:27.609Z,9.65
2023-03-02T09:59:02.408Z,9.55
2023-03-02T10:01:37.097Z,9.35
2023-03-02T10:04:14.349Z,8.60
2023-03-02T10:06:41.972Z,9.77
2023-03-02T10:09:11.002Z,8.68
2023-03-02T10:11:51.447Z,9.07
2023-03-02T10:14:25.238Z,9.13
2023-03-02T10:17:00.165Z,9.68
2023-03-02T10:19:32.998Z,9.30
2023-03-02T10:22:10.714Z,9.77
2023-03-02T10:24:44.574Z,8.82
2023-03-02T10:27:19.048Z,9.25
2023-03-02T10:29:59.136Z,11.82
2023-03-02T10:32:31.392Z,10.32
2023-03-02T10:35:02.281Z,10.35
2023-03-02T10:37:31.524Z,9.25
2023-03-02T10:39:59.118Z,8.82
2023-03-02T10:42:30.819Z,9.15
2023-03-02T10:45:09.095Z,9.18
2023-03-02T10:47:36.628Z,10.07
2023-03-02T10:50:04.281Z,9.50
2023-03-02T10:52:31.950Z,8.98
2023-03-02T10:55:04.052Z,8.93
2023-03-02T10:57:37.807Z,8.63
2023-03-02T11:00:17.850Z,8.77
2023-03-02T11:02:53.354Z,9.70
2023-03-02T11:05:27.115Z,8.63
2023-03-02T11:07:56.071Z,10.27
2023-03-02T11:10:26.210Z,9.13
2023-03-02T11:12:54.521Z,8.90
2023-03-02T11:15:41.235Z,9.40
2023-03-02T11:18:18.020Z,9.73
2023-03-02T11:20:50.310Z,8.70
2023-03-02T11:25:55.466Z,7.93
2023-03-02T11:28:33.726Z,9.10
2023-03-02T11:31:06.539Z,7.75
2023-03-02T11:33:38.372Z,8.23
2023-03-02T11:36:13.376Z,7.93
2023-03-02T11:38:48.558Z,8.02
2023-03-02T11:41:27.395Z,7.50
2023-03-02T11:43:55.461Z,8.45
2023-03-02T11:46:27.917Z,7.55
2023-03-02T11:48:58.381Z,7.57
2023-03-02T11:51:29.392Z,7.45
2023-03-02T11:54:01.254Z,7.85
2023-03-02T11:56:32.308Z,6.72
2023-03-02T11:59:04.701Z,7.32
2023-03-02T12:01:37.978Z,6.32
2023-03-02T12:04:09.869Z,8.00
2023-03-02T12:06:40.329Z,7.10
2023-03-02T12:09:11.797Z,6.40
2023-03-02T12:11:41.648Z,7.10
2023-03-02T12:14:28.173Z,6.90
2023-03-02T12:17:08.508Z,7.05
2023-03-02T12:19:45.177Z,6.40
2023-03-02T12:22:14.782Z,8.00
2023-03-02T12:24:45.099Z,7.68
2023-03-02T12:27:27.014Z,7.82
2023-03-02T12:30:09.370Z,7.82
2023-03-02T12:32:38.584Z,8.15
2023-03-02T12:35:14.594Z,8.63
2023-03-02T12:37:47.480Z,8.57
2023-03-02T12:40:54.843Z,8.80
2023-03-02T12:43:30.789Z,8.93
2023-03-02T12:46:21.199Z,8.70
2023-03-02T12:48:59.828Z,7.55
2023-03-02T12:51:29.679Z,8.05
2023-03-02T12:54:04.806Z,8.07
2023-03-02T12:56:32.814Z,8.63
2023-03-02T12:59:00.409Z,8.20
2023-03-02T13:01:29.921Z,8.43
2023-03-02T13:03:59.803Z,8.63
2023-03-02T13:06:31.884Z,7.93
2023-03-02T13:09:00.861Z,8.27
2023-03-02T13:11:32.010Z,7.85
2023-03-02T13:14:00.336Z,7.38
2023-03-02T13:16:29.812Z,8.35
2023-03-02T13:19:01.504Z,6.93
2023-03-02T13:21:33.088Z,8.27
2023-03-02T13:24:01.121Z,7.83
2023-03-02T13:26:31.072Z,7.88
2023-03-02T13:29:03.519Z,8.23
2023-03-02T13:31:31.855Z,6.78
2023-03-02T13:34:01.041Z,6.57
2023-03-02T13:36:30.476Z,7.25
2023-03-02T13:39:00.343Z,7.32
2023-03-02T13:41:29.876Z,8.25
2023-03-02T13:43:58.207Z,7.55
2023-03-02T13:46:28.833Z,7.07
2023-03-02T13:49:09.045Z,8.38
2023-03-02T13:51:41.903Z,7.25
2023-03-02T13:54:19.882Z,7.43
2023-03-02T13:56:47.522Z,6.18
2023-03-02T13:59:18.895Z,6.95
2023-03-02T14:01:46.697Z,6.22
2023-03-02T14:04:16.527Z,6.93
2023-03-02T14:06:45.660Z,6.80
2023-03-02T14:09:13.186Z,7.22
2023-03-02T14:11:45.188Z,6.63
2023-03-02T14:14:17.090Z,6.47
2023-03-02T14:16:44.603Z,7.75
2023-03-02T14:19:13.673Z,8.05
2023-03-02T14:21:43.200Z,8.05
2023-03-02T14:24:12.671Z,8.38
2023-03-02T14:26:43.524Z,8.13
2023-03-02T14:29:22.210Z,7.70
2023-03-02T14:31:50.148Z,8.70
2023-03-02T14:34:18.907Z,7.80
2023-03-02T14:36:49.012Z,7.63
2023-03-02T14:39:23.376Z,7.78
2023-03-02T14:41:54.078Z,7.70
2023-03-02T14:44:22.506Z,7.38
2023-03-02T14:46:50.496Z,8.30
2023-03-02T14:49:18.016Z,7.95
2023-03-02T14:51:55.154Z,7.45
2023-03-02T14:54:24.072Z,7.13
2023-03-02T14:56:51.700Z,7.72
2023-03-02T14:59:19.354Z,7.57
2023-03-02T15:01:46.935Z,7.78
2023-03-02T15:04:14.498Z,7.53
2023-03-02T15:06:44.305Z,8.15
2023-03-02T15:09:12.502Z,7.57
2023-03-02T15:11:41.322Z,7.60
2023-03-02T15:14:08.974Z,7.60
2023-03-02T15:16:36.690Z,7.25
2023-03-02T15:19:04.241Z,7.47
2023-03-02T15:21:32.168Z,7.10
2023-03-02T15:23:59.860Z,7.25
2023-03-02T15:26:27.439Z,7.85
2023-03-02T15:28:56.270Z,6.85
2023-03-02T15:31:23.766Z,6.95
2023-03-02T15:33:52.054Z,8.05
2023-03-02T15:36:19.694Z,6.93
2023-03-02T15:38:49.950Z,8.43
2023-03-02T15:41:17.627Z,7.45
2023-03-02T15:43:45.974Z,6.75
2023-03-02T15:46:14.846Z,8.43
2023-03-02T15:48:42.353Z,7.57
2023-03-02T15:51:11.147Z,7.05
2023-03-02T15:53:40.021Z,7.68
2023-03-02T15:56:10.038Z,6.97
2023-03-02T15:58:37.602Z,7.15
2023-03-02T16:01:08.195Z,7.00
2023-03-02T16:03:37.150Z,6.28
2023-03-02T16:06:05.291Z,7.97
2023-03-02T16:08:32.791Z,6.95
2023-03-02T16:11:02.348Z,7.70
2023-03-02T16:13:30.881Z,7.13
2023-03-02T16:16:01.629Z,6.18
2023-03-02T16:18:29.428Z,7.28
2023-03-02T16:20:58.527Z,7.15
2023-03-02T16:23:26.364Z,8.02
2023-03-02T16:25:53.899Z,8.27
2023-03-02T16:28:21.572Z,8.40
2023-03-02T16:30:49.322Z,9.23
2023-03-02T16:33:18.877Z,8.63
2023-03-02T16:35:46.869Z,8.52
2023-03-02T16:38:16.651Z,7.88
2023-03-02T16:40:44.143Z,8.82
2023-03-02T16:43:11.632Z,8.13
2023-03-02T16:45:39.231Z,8.32
2023-03-02T16:48:07.614Z,7.88
2023-03-02T16:50:35.132Z,8.15
2023-03-02T16:53:03.011Z,9.02
2023-03-02T16:55:31.984Z,9.10
2023-03-02T16:57:59.520Z,9.32
2023-03-02T17:00:27.822Z,8.77
2023-03-02T17:02:55.380Z,9.90
2023-03-02T17:05:23.204Z,9.73
2023-03-02T17:07:50.819Z,9.77
2023-03-02T17:10:22.676Z,10.68
2023-03-02T17:12:51.548Z,11.05
2023-03-02T17:15:19.213Z,10.60
2023-03-02T17:17:46.786Z,10.93
2023-03-02T17:20:14.995Z,12.65
2023-03-02T17:22:42.503Z,12.13
2023-03-02T17:25:11.763Z,11.57
2023-03-02T17:27:39.429Z,11.88
2023-03-02T17:30:12.490Z,11.93
2023-03-02T17:32:40.616Z,12.07
2023-03-02T17:35:11.626Z,12.38
2023-03-02T17:37:40.028Z,11.57
2023-03-02T17:40:09.248Z,12.45
2023-03-02T17:42:39.046Z,12.43
2023-03-02T17:45:09.362Z,13.60
2023-03-02T17:47:36.937Z,12.23
2023-03-02T17:50:05.379Z,13.00
2023-03-02T17:52:32.935Z,12.02
2023-03-02T17:55:00.460Z,11.48
2023-03-02T17:57:28.047Z,10.50
2023-03-02T17:59:57.415Z,10.77
2023-03-02T18:02:26.251Z,11.75
2023-03-02T18:04:53.891Z,13.02
2023-03-02T18:07:21.406Z,12.55
2023-03-02T18:09:48.936Z,14.93
2023-03-02T18:12:16.532Z,13.27
2023-03-02T18:14:44.300Z,13.68
2023-03-02T18:17:12.441Z,12.85
2023-03-02T18:19:41.534Z,13.85
2023-03-02T18:22:09.096Z,13.65
2023-03-02T18:24:36.712Z,13.85
2023-03-02T18:27:04.761Z,13.07
2023-03-02T18:29:32.615Z,12.55
2023-03-02T18:32:00.263Z,15.13
2023-03-02T18:34:27.829Z,15.18
2023-03-02T18:36:56.847Z,13.70
2023-03-02T18:39:24.351Z,13.95
2023-03-02T18:41:51.932Z,13.27
2023-03-02T18:44:19.919Z,13.20
2023-03-02T18:46:47.606Z,13.90
2023-03-02T18:49:15.248Z,17.27
2023-03-02T18:51:43.306Z,13.18
2023-03-02T18:54:12.398Z,14.00
2023-03-02T18:56:40.712Z,15.25
2023-03-02T18:59:09.570Z,15.00
2023-03-02T19:01:37.628Z,16.17
2023-03-02T19:04:05.317Z,16.67
2023-03-02T19:06:43.096Z,16.23
2023-03-02T19:09:12.304Z,17.10
2023-03-02T19:11:39.842Z,17.83
2023-03-02T19:14:07.443Z,17.13
2023-03-02T19:16:36.103Z,17.55
2023-03-02T19:19:03.767Z,20.38
2023-03-02T19:21:31.345Z,18.27
2023-03-02T19:23:59.030Z,17.80
2023-03-02T19:26:27.931Z,19.98
2023-03-02T19:28:55.799Z,19.73
2023-03-02T19:31:24.079Z,18.50
2023-03-02T19:33:51.702Z,17.85
2023-03-02T19:36:19.261Z,20.38
2023-03-02T19:38:46.984Z,19.35
2023-03-02T19:41:17.055Z,18.63
2023-03-02T19:43:46.582Z,19.30
2023-03-02T19:46:15.379Z,21.00
2023-03-02T19:48:43.577Z,20.15
2023-03-02T19:51:12.010Z,20.40
2023-03-02T19:53:40.222Z,20.70
2023-03-02T19:56:12.743Z,21.15
2023-03-02T19:58:46.973Z,20.55
2023-03-02T20:01:21.557Z,21.17
2023-03-02T20:03:51.575Z,21.23
2023-03-02T20:06:19.402Z,20.35
2023-03-02T20:08:48.084Z,20.48
2023-03-02T20:11:16.173Z,21.15
2023-03-02T20:13:43.881Z,18.83
2023-03-02T20:16:13.347Z,18.67
2023-03-02T20:18:42.475Z,21.10
2023-03-02T20:21:10.196Z,20.33
2023-03-02T20:23:38.178Z,20.60
2023-03-02T20:26:06.341Z,19.80
2023-03-02T20:28:34.499Z,20.00
2023-03-02T20:31:08.851Z,21.60
2023-03-02T20:33:39.346Z,21.23
2023-03-02T20:36:09.196Z,20.85
2023-03-02T20:38:43.660Z,20.58
2023-03-02T20:41:12.376Z,20.27
2023-03-02T20:43:40.266Z,21.75
2023-03-02T20:46:09.972Z,19.70
2023-03-02T20:48:39.953Z,22.63
2023-03-02T20:51:08.842Z,21.90
2023-03-02T20:53:36.453Z,21.40
2023-03-02T20:56:04.620Z,21.38
2023-03-02T20:58:32.236Z,23.00
2023-03-02T21:01:00.559Z,21.85
2023-03-02T21:03:28.223Z,19.63
2023-03-02T21:05:56.911Z,23.23
2023-03-02T21:08:25.891Z,21.65
2023-03-02T21:10:53.413Z,21.77
2023-03-02T21:13:22.456Z,22.27
2023-03-02T21:15:50.467Z,23.77
2023-03-02T21:18:18.207Z,22.75
2023-03-02T21:20:45.745Z,22.13
2023-03-02T21:23:13.364Z,20.92
2023-03-02T21:25:43.895Z,22.88
2023-03-02T21:28:11.878Z,23.98
2023-03-02T21:30:39.440Z,22.67
2023-03-02T21:33:07.231Z,23.50
2023-03-02T21:35:34.794Z,22.95
2023-03-02T21:38:05.014Z,23.80
2023-03-02T21:40:34.909Z,23.38
2023-03-02T21:43:05.364Z,23.65
2023-03-02T21:45:33.637Z,25.42
2023-03-02T21:48:01.141Z,24.17
2023-03-02T21:50:31.993Z,23.75
2023-03-02T21:52:59.527Z,24.17
2023-03-02T21:55:27.482Z,23.38
2023-03-02T21:57:55.310Z,24.08
2023-03-02T22:00:26.110Z,23.80
2023-03-02T22:02:54.996Z,24.08
2023-03-02T22:05:22.638Z,24.92
2023-03-02T22:07:50.665Z,24.67
2023-03-02T22:10:27.736Z,23.05
2023-03-02T22:12:58.444Z,24.38
2023-03-02T22:15:28.066Z,24.40
2023-03-02T22:17:56.501Z,23.23
2023-03-02T22:20:24.205Z,22.35
2023-03-02T22:22:54.392Z,23.33
2023-03-02T22:25:22.093Z,24.25
2023-03-02T22:27:49.634Z,23.02
2023-03-02T22:30:20.916Z,24.85
2023-03-02T22:32:50.441Z,24.52
2023-03-02T22:35:24.375Z,22.25
2023-03-02T22:37:55.577Z,23.98
2023-03-02T22:40:29.530Z,24.63
2023-03-02T22:43:07.632Z,21.77
2023-03-02T22:45:36.295Z,22.15
2023-03-02T22:48:11.826Z,23.95
2023-03-02T22:50:39.408Z,23.88
2023-03-02T22:53:22.127Z,23.67
2023-03-02T22:55:49.710Z,24.13
2023-03-02T22:58:29.409Z,24.88
2023-03-02T23:00:58.001Z,22.77
2023-03-02T23:03:36.468Z,24.00
2023-03-02T23:06:20.377Z,23.45
2023-03-02T23:08:47.889Z,23.48
2023-03-02T23:11:18.372Z,23.63
2023-03-02T23:13:46.075Z,24.85
2023-03-02T23:16:19.349Z,23.65
2023-03-02T23:18:49.205Z,23.40
2023-03-02T23:21:20.178Z,24.55
2023-03-02T23:23:48.106Z,22.80
2023-03-02T23:26:15.664Z,24.05
2023-03-02T23:28:43.197Z,25.52
2023-03-02T23:31:10.763Z,24.27
2023-03-02T23:33:38.264Z,23.17
2023-03-02T23:36:08.116Z,24.90
2023-03-02T23:38:35.647Z,23.40
2023-03-02T23:41:03.192Z,24.40
2023-03-02T23:43:30.800Z,23.70
2023-03-02T23:45:58.316Z,25.45
2023-03-02T23:48:26.003Z,23.30
2023-03-02T23:50:53.637Z,23.10
2023-03-02T23:53:22.586Z,25.08
2023-03-02T23:55:52.390Z,23.33
2023-03-02T23:58:19.985Z,23.42
